createdAt,value
2017-08-30T00:02:46.192Z,97031.61
2017-08-30T00:07:32.793Z,97034.65
2017-08-30T00:12:19.719Z,97031.77
2017-08-30T00:17:06.583Z,97028.84
2017-08-30T00:21:53.267Z,97029.23
2017-08-30T00:26:40.214Z,97026.84
2017-08-30T00:31:26.851Z,97027.85
2017-08-30T00:36:13.546Z,97030.41
2017-08-30T00:41:00.470Z,97021.45
2017-08-30T00:45:47.079Z,97021.60
2017-08-30T00:50:33.680Z,97014.48
2017-08-30T00:55:20.326Z,97008.03
2017-08-30T01:00:06.992Z,97002.45
2017-08-30T01:04:53.663Z,97012.45
2017-08-30T01:09:40.599Z,97013.77
2017-08-30T01:14:27.206Z,97006.55
2017-08-30T01:19:13.852Z,97007.11
2017-08-30T01:24:00.501Z,97006.52
2017-08-30T01:28:47.118Z,97001.12
2017-08-30T01:33:33.753Z,96997.98
2017-08-30T01:38:20.373Z,96999.23
2017-08-30T01:43:06.997Z,97005.08
2017-08-30T01:47:54.901Z,96989.11
2017-08-30T01:52:41.566Z,96992.84
2017-08-30T01:57:28.528Z,96994.98
2017-08-30T02:02:15.169Z,96993.95
2017-08-30T02:07:01.932Z,96992.29
2017-08-30T02:11:48.651Z,96997.73
2017-08-30T02:16:35.297Z,97000.73
2017-08-30T02:21:22.259Z,97002.67
2017-08-30T02:26:08.874Z,96997.36
2017-08-30T02:30:55.507Z,97010.26
2017-08-30T02:35:42.662Z,97003.63
2017-08-30T02:40:29.852Z,96993.16
2017-08-30T02:45:16.511Z,96996.27
2017-08-30T02:50:03.320Z,96987.09
2017-08-30T02:54:49.921Z,96984.44
2017-08-30T02:59:36.638Z,96977.74
2017-08-30T03:04:23.593Z,96979.70
2017-08-30T03:09:10.205Z,96981.34
2017-08-30T03:13:56.856Z,96970.48
2017-08-30T03:18:43.477Z,96978.30
2017-08-30T03:23:30.100Z,96975.78
2017-08-30T03:28:17.072Z,96971.63
2017-08-30T03:33:03.665Z,96973.12
2017-08-30T03:37:50.273Z,96958.63
2017-08-30T03:42:36.889Z,96956.14
2017-08-30T03:47:23.541Z,96956.86
2017-08-30T03:52:10.508Z,96961.28
2017-08-30T03:56:57.102Z,96964.31
2017-08-30T04:01:43.742Z,96956.23
2017-08-30T04:06:30.657Z,96949.17
2017-08-30T04:11:17.308Z,96943.65
2017-08-30T04:16:03.915Z,96949.17
2017-08-30T04:20:50.530Z,96960.16
2017-08-30T04:25:37.146Z,96955.46
2017-08-30T04:30:24.070Z,96961.40
2017-08-30T04:35:10.677Z,96968.11
2017-08-30T04:39:57.308Z,96974.66
2017-08-30T04:44:44.425Z,96963.97
2017-08-30T04:49:31.056Z,96959.05
2017-08-30T04:54:17.684Z,96957.48
2017-08-30T04:59:04.300Z,96968.20
2017-08-30T05:03:51.420Z,96974.11
2017-08-30T05:08:38.021Z,96975.02
2017-08-30T05:13:24.623Z,96981.92
2017-08-30T05:18:11.314Z,96976.80
2017-08-30T05:22:57.953Z,96971.95
2017-08-30T05:27:44.953Z,96971.27
2017-08-30T05:32:31.556Z,96962.81
2017-08-30T05:37:18.267Z,96954.50
2017-08-30T05:42:04.885Z,96960.73
2017-08-30T05:46:51.498Z,96949.61
2017-08-30T05:51:38.230Z,96948.62
2017-08-30T05:56:24.849Z,96947.43
2017-08-30T06:01:11.502Z,96947.91
2017-08-30T06:05:58.189Z,96937.25
2017-08-30T06:10:45.220Z,96939.23
2017-08-30T06:15:31.894Z,96953.37
2017-08-30T06:20:18.529Z,96949.31
2017-08-30T06:25:05.508Z,96958.83
2017-08-30T06:29:52.138Z,96954.57
2017-08-30T06:34:38.973Z,96953.53
2017-08-30T06:39:25.717Z,96949.81
2017-08-30T06:44:12.501Z,96947.69
2017-08-30T06:48:59.204Z,96938.16
2017-08-30T06:53:45.834Z,96928.99
2017-08-30T06:58:32.545Z,96944.37
2017-08-30T07:03:19.152Z,96943.31
2017-08-30T07:08:05.771Z,96954.00
2017-08-30T07:12:52.556Z,96943.63
2017-08-30T07:17:39.536Z,96941.42
2017-08-30T07:22:26.117Z,96953.42
2017-08-30T07:27:12.777Z,96960.34
2017-08-30T07:31:59.502Z,96959.48
2017-08-30T07:36:46.137Z,96953.16
2017-08-30T07:41:33.256Z,96945.88
2017-08-30T07:46:19.972Z,96935.48
2017-08-30T07:51:06.799Z,96940.80
2017-08-30T07:55:53.423Z,96933.65
2017-08-30T08:00:40.152Z,96952.47
2017-08-30T08:05:26.965Z,96949.56
2017-08-30T08:10:13.911Z,96950.83
2017-08-30T08:15:00.524Z,96939.57
2017-08-30T08:19:47.336Z,96940.83
2017-08-30T08:24:33.969Z,96945.61
2017-08-30T08:29:20.780Z,96951.02
2017-08-30T08:34:07.446Z,96943.97
2017-08-30T08:38:54.531Z,96945.33
2017-08-30T08:43:41.147Z,96954.66
2017-08-30T08:48:27.758Z,96948.86
2017-08-30T08:53:14.405Z,96938.52
2017-08-30T08:58:01.053Z,96940.65
2017-08-30T09:02:48.426Z,96943.73
2017-08-30T09:07:35.389Z,96933.36
2017-08-30T09:12:22.103Z,96926.02
2017-08-30T09:17:08.768Z,96928.69
2017-08-30T09:21:55.482Z,96916.25
2017-08-30T09:26:42.164Z,96917.19
2017-08-30T09:31:29.092Z,96910.48
2017-08-30T09:36:15.699Z,96905.48
2017-08-30T09:41:02.337Z,96901.92
2017-08-30T09:45:49.016Z,96907.37
2017-08-30T09:50:35.782Z,96911.13
2017-08-30T09:55:22.572Z,96912.09
2017-08-30T10:00:09.546Z,96906.11
2017-08-30T10:04:56.250Z,96902.22
2017-08-30T10:09:42.971Z,96894.95
2017-08-30T10:14:29.937Z,96894.20
2017-08-30T10:19:16.740Z,96888.36
2017-08-30T10:24:03.548Z,96895.55
2017-08-30T10:28:50.477Z,96888.60
2017-08-30T10:33:37.605Z,96882.22
2017-08-30T10:38:24.237Z,96886.19
2017-08-30T10:43:10.898Z,96877.73
2017-08-30T10:47:57.660Z,96871.08
2017-08-30T10:52:44.246Z,96868.14
2017-08-30T10:57:32.250Z,96869.59
2017-08-30T11:02:18.840Z,96868.16
2017-08-30T11:07:05.482Z,96863.26
2017-08-30T11:11:52.163Z,96862.73
2017-08-30T11:16:39.077Z,96864.48
2017-08-30T11:21:25.727Z,96858.63
2017-08-30T11:26:12.400Z,96858.68
2017-08-30T11:30:59.025Z,96844.09
2017-08-30T11:35:45.698Z,96845.07
2017-08-30T11:40:32.969Z,96844.48
2017-08-30T11:45:19.873Z,96836.59
2017-08-30T11:50:06.784Z,96831.05
2017-08-30T11:54:53.524Z,96823.70
2017-08-30T11:59:40.418Z,96820.61
2017-08-30T12:04:27.014Z,96817.72
2017-08-30T12:09:13.644Z,96805.17
2017-08-30T12:14:00.258Z,96805.27
2017-08-30T12:18:46.926Z,96804.86
2017-08-30T12:23:33.548Z,96796.42
2017-08-30T12:28:20.442Z,96792.05
2017-08-30T12:33:07.090Z,96794.34
2017-08-30T12:37:59.783Z,96793.76
2017-08-30T12:42:46.396Z,96804.66
2017-08-30T12:47:33.028Z,96792.13
2017-08-30T12:52:19.669Z,96794.83
2017-08-30T12:57:06.761Z,96794.62
2017-08-30T13:01:53.349Z,96782.33
2017-08-30T13:06:39.970Z,96780.61
2017-08-30T13:11:26.971Z,96778.23
2017-08-30T13:16:13.637Z,96771.16
2017-08-30T13:21:00.689Z,96765.48
2017-08-30T13:25:47.385Z,96764.72
2017-08-30T13:30:34.017Z,96751.58
2017-08-30T13:35:20.765Z,96747.77
2017-08-30T13:40:07.384Z,96753.17
2017-08-30T13:44:54.025Z,96757.42
2017-08-30T13:49:40.970Z,96752.63
2017-08-30T13:54:27.577Z,96741.02
2017-08-30T13:59:14.178Z,96751.05
2017-08-30T14:04:00.831Z,96738.05
2017-08-30T14:08:48.464Z,96740.27
2017-08-30T14:13:35.149Z,96739.93
2017-08-30T14:18:21.833Z,96725.71
2017-08-30T14:23:08.486Z,96726.33
2017-08-30T14:27:55.131Z,96725.45
2017-08-30T14:32:41.789Z,96724.56
2017-08-30T14:37:28.472Z,96719.75
2017-08-30T14:42:16.041Z,96722.79
2017-08-30T14:47:02.795Z,96709.27
2017-08-30T14:51:49.459Z,96700.55
2017-08-30T14:56:36.085Z,96698.44
2017-08-30T15:01:22.756Z,96691.97
2017-08-30T15:06:09.389Z,96687.77
2017-08-30T15:10:56.308Z,96679.77
2017-08-30T15:15:42.918Z,96673.16
2017-08-30T15:20:29.559Z,96670.76
2017-08-30T15:25:16.217Z,96671.25
2017-08-30T15:30:02.825Z,96668.66
2017-08-30T15:34:49.444Z,96664.94
2017-08-30T15:39:36.107Z,96662.37
2017-08-30T15:44:22.725Z,96651.59
2017-08-30T15:49:09.686Z,96640.30
2017-08-30T15:53:56.292Z,96632.55
2017-08-30T15:58:42.921Z,96627.05
2017-08-30T16:03:29.681Z,96618.43
2017-08-30T16:08:16.376Z,96618.84
2017-08-30T16:13:03.095Z,96616.97
2017-08-30T16:17:50.133Z,96614.17
2017-08-30T16:22:36.769Z,96611.97
2017-08-30T16:27:23.415Z,96605.44
2017-08-30T16:32:10.661Z,96601.20
2017-08-30T16:36:57.268Z,96608.05
2017-08-30T16:41:44.382Z,96606.66
2017-08-30T16:46:31.000Z,96600.48
2017-08-30T16:51:17.629Z,96600.89
2017-08-30T16:56:04.284Z,96593.94
2017-08-30T17:00:50.949Z,96597.15
2017-08-30T17:05:37.611Z,96589.36
2017-08-30T17:10:25.080Z,96594.37
2017-08-30T17:15:12.111Z,96590.77
2017-08-30T17:19:58.814Z,96585.13
2017-08-30T17:24:45.497Z,96581.53
2017-08-30T17:29:32.854Z,96576.03
2017-08-30T17:34:19.681Z,96572.37
2017-08-30T17:39:06.409Z,96581.60
2017-08-30T17:43:53.067Z,96580.46
2017-08-30T17:48:39.747Z,96577.95
2017-08-30T17:53:26.509Z,96578.27
2017-08-30T17:58:13.222Z,96579.79
2017-08-30T18:03:00.052Z,96574.61
2017-08-30T18:07:46.808Z,96559.58
2017-08-30T18:12:33.916Z,96576.73
2017-08-30T18:17:20.648Z,96570.22
2017-08-30T18:22:07.588Z,96578.61
2017-08-30T18:26:54.190Z,96582.87
2017-08-30T18:31:40.999Z,96583.14
2017-08-30T18:36:27.631Z,96575.12
2017-08-30T18:41:14.272Z,96575.99
2017-08-30T18:46:01.301Z,96572.08
2017-08-30T18:50:47.926Z,96571.92
2017-08-30T18:55:34.574Z,96577.93
2017-08-30T19:00:21.373Z,96590.20
2017-08-30T19:05:08.577Z,96584.20
2017-08-30T19:09:55.395Z,96576.08
2017-08-30T19:14:42.025Z,96577.24
2017-08-30T19:19:28.739Z,96583.51
2017-08-30T19:24:15.382Z,96588.45
2017-08-30T19:29:03.112Z,96580.28
2017-08-30T19:33:49.972Z,96576.56
2017-08-30T19:38:36.994Z,96574.58
2017-08-30T19:43:23.798Z,96578.10
2017-08-30T19:48:10.609Z,96577.20
2017-08-30T19:52:57.334Z,96567.89
2017-08-30T19:57:44.094Z,96550.04
2017-08-30T20:02:30.804Z,96543.38
2017-08-30T20:07:17.508Z,96540.20
2017-08-30T20:12:04.745Z,96544.45
2017-08-30T20:16:51.456Z,96550.41
2017-08-30T20:21:38.259Z,96552.12
2017-08-30T20:26:24.998Z,96559.80
2017-08-30T20:31:11.656Z,96562.81
2017-08-30T20:35:58.761Z,96567.43
2017-08-30T20:40:45.493Z,96564.36
2017-08-30T20:45:32.137Z,96558.25
2017-08-30T20:50:18.833Z,96564.86
2017-08-30T20:55:05.921Z,96554.13
2017-08-30T20:59:52.541Z,96556.33
2017-08-30T21:04:39.193Z,96556.25
2017-08-30T21:09:25.811Z,96543.63
2017-08-30T21:14:12.738Z,96540.22
2017-08-30T21:18:59.328Z,96545.29
2017-08-30T21:23:45.986Z,96545.42
2017-08-30T21:28:32.622Z,96545.98
2017-08-30T21:33:19.381Z,96531.30
2017-08-30T21:38:06.363Z,96535.09
2017-08-30T21:42:53.424Z,96529.41
2017-08-30T21:47:40.176Z,96527.89
2017-08-30T21:52:27.216Z,96530.36
2017-08-30T21:57:13.838Z,96520.25
2017-08-30T22:02:00.454Z,96507.45
2017-08-30T22:06:47.107Z,96501.85
2017-08-30T22:11:34.114Z,96499.14
2017-08-30T22:16:20.736Z,96501.94
2017-08-30T22:21:07.394Z,96497.02
2017-08-30T22:25:54.799Z,96496.17
2017-08-30T22:30:41.818Z,96496.89
2017-08-30T22:35:28.511Z,96496.20
2017-08-30T22:40:15.127Z,96505.37
2017-08-30T22:45:02.065Z,96510.19
2017-08-30T22:49:48.696Z,96511.60
2017-08-30T22:54:35.526Z,96515.56
2017-08-30T22:59:22.156Z,96518.52
2017-08-30T23:04:09.097Z,96525.28
2017-08-30T23:08:55.733Z,96516.58
2017-08-30T23:13:42.352Z,96508.55
2017-08-30T23:18:28.985Z,96515.48
2017-08-30T23:23:15.877Z,96522.30
2017-08-30T23:28:02.490Z,96527.09
2017-08-30T23:32:49.168Z,96536.15
2017-08-30T23:37:35.780Z,96549.46
2017-08-30T23:42:22.429Z,96554.78
2017-08-30T23:47:09.049Z,96562.80
2017-08-30T23:51:56.016Z,96571.48
2017-08-30T23:56:42.620Z,96572.44
